createdAt,value
2022-12-15T00:02:11.430Z,-6.29
2022-12-15T00:04:56.613Z,-6.33
2022-12-15T00:07:41.651Z,-6.34
2022-12-15T00:10:27.173Z,-6.36
2022-12-15T00:13:12.159Z,-6.37
2022-12-15T00:15:57.120Z,-6.37
2022-12-15T00:18:41.978Z,-6.36
2022-12-15T00:21:27.225Z,-6.39
2022-12-15T00:24:12.147Z,-6.46
2022-12-15T00:26:57.190Z,-6.53
2022-12-15T00:29:42.190Z,-6.52
2022-12-15T00:32:27.372Z,-6.52
2022-12-15T00:35:12.186Z,-6.53
2022-12-15T00:37:57.124Z,-6.57
2022-12-15T00:40:23.612Z,-6.61
2022-12-15T00:42:50.112Z,-6.67
2022-12-15T00:45:16.756Z,-6.68
2022-12-15T00:47:43.281Z,-6.69
2022-12-15T00:50:28.482Z,-6.72
2022-12-15T00:53:13.323Z,-6.73
2022-12-15T00:55:58.541Z,-6.74
2022-12-15T00:58:43.298Z,-6.78
2022-12-15T01:01:29.589Z,-6.79
2022-12-15T01:04:15.117Z,-6.79
2022-12-15T01:06:59.970Z,-6.80
2022-12-15T01:09:44.830Z,-6.78
2022-12-15T01:12:30.105Z,-6.79
2022-12-15T01:15:15.270Z,-6.79
2022-12-15T01:18:00.662Z,-6.82
2022-12-15T01:20:27.187Z,-6.84
2022-12-15T01:22:55.541Z,-6.86
2022-12-15T01:25:24.556Z,-6.85
2022-12-15T01:27:51.826Z,-6.85
2022-12-15T01:30:21.853Z,-6.84
2022-12-15T01:32:48.497Z,-6.85
2022-12-15T01:35:15.384Z,-6.85
2022-12-15T01:37:42.080Z,-6.87
2022-12-15T01:40:31.778Z,-6.88
2022-12-15T01:42:58.374Z,-6.88
2022-12-15T01:45:24.872Z,-6.87
2022-12-15T01:47:53.586Z,-6.87
2022-12-15T01:50:20.153Z,-6.89
2022-12-15T01:52:49.693Z,-6.88
2022-12-15T01:55:19.033Z,-6.92
2022-12-15T01:57:48.487Z,-6.95
2022-12-15T02:00:15.542Z,-6.93
2022-12-15T02:02:42.339Z,-6.91
2022-12-15T02:05:10.273Z,-6.89
2022-12-15T02:07:36.812Z,-6.85
2022-12-15T02:10:07.419Z,-6.83
2022-12-15T02:12:49.087Z,-6.84
2022-12-15T02:15:38.469Z,-6.86
2022-12-15T02:18:20.035Z,-6.87
2022-12-15T02:20:53.033Z,-6.91
2022-12-15T02:23:28.838Z,-6.91
2022-12-15T02:25:56.178Z,-6.90
2022-12-15T02:28:53.287Z,-6.90
2022-12-15T02:31:50.991Z,-6.91
2022-12-15T02:34:49.151Z,-6.95
2022-12-15T02:37:25.068Z,-6.98
2022-12-15T02:39:51.723Z,-6.98
2022-12-15T02:42:18.794Z,-7.01
2022-12-15T02:45:16.749Z,-7.00
2022-12-15T02:47:52.657Z,-7.01
2022-12-15T02:50:34.573Z,-7.02
2022-12-15T02:53:24.571Z,-7.03
2022-12-15T02:55:57.205Z,-7.05
2022-12-15T02:58:34.762Z,-7.07
2022-12-15T03:01:11.106Z,-7.08
2022-12-15T03:03:38.628Z,-7.08
2022-12-15T03:06:06.664Z,-7.11
2022-12-15T03:08:33.151Z,-7.09
2022-12-15T03:11:00.046Z,-7.10
2022-12-15T03:13:26.593Z,-7.11
2022-12-15T03:15:54.601Z,-7.10
2022-12-15T03:18:21.707Z,-7.12
2022-12-15T03:20:48.278Z,-7.13
2022-12-15T03:23:14.872Z,-7.14
2022-12-15T03:25:41.380Z,-7.14
2022-12-15T03:28:07.905Z,-7.15
2022-12-15T03:30:34.456Z,-7.16
2022-12-15T03:33:01.192Z,-7.17
2022-12-15T03:35:27.853Z,-7.16
2022-12-15T03:37:54.382Z,-7.17
2022-12-15T03:40:20.967Z,-7.15
2022-12-15T03:42:50.190Z,-7.18
2022-12-15T03:45:18.226Z,-7.18
2022-12-15T03:47:45.791Z,-7.15
2022-12-15T03:50:14.417Z,-7.12
2022-12-15T03:52:41.227Z,-7.11
2022-12-15T03:55:08.386Z,-7.12
2022-12-15T03:57:35.071Z,-7.13
2022-12-15T04:00:01.737Z,-7.11
2022-12-15T04:02:28.502Z,-7.10
2022-12-15T04:04:55.222Z,-7.11
2022-12-15T04:07:21.696Z,-7.11
2022-12-15T04:09:48.217Z,-7.12
2022-12-15T04:12:14.671Z,-7.14
2022-12-15T04:14:42.642Z,-7.14
2022-12-15T04:17:10.327Z,-7.17
2022-12-15T04:19:55.525Z,-7.16
2022-12-15T04:22:22.436Z,-7.20
2022-12-15T04:25:07.998Z,-7.21
2022-12-15T04:27:58.407Z,-7.18
2022-12-15T04:30:46.438Z,-7.14
2022-12-15T04:33:32.328Z,-7.10
2022-12-15T04:36:18.296Z,-7.06
2022-12-15T04:39:03.678Z,-7.02
2022-12-15T04:41:51.051Z,-7.02
2022-12-15T04:44:36.161Z,-7.00
2022-12-15T04:47:21.670Z,-6.97
2022-12-15T04:50:06.767Z,-6.99
2022-12-15T04:52:51.929Z,-7.02
2022-12-15T04:55:36.850Z,-7.05
2022-12-15T04:58:26.889Z,-7.06
2022-12-15T05:01:12.943Z,-7.06
2022-12-15T05:03:58.095Z,-7.06
2022-12-15T05:06:43.055Z,-7.06
2022-12-15T05:09:28.111Z,-7.07
2022-12-15T05:12:12.956Z,-7.06
2022-12-15T05:14:57.861Z,-7.06
2022-12-15T05:17:43.107Z,-7.05
2022-12-15T05:20:28.985Z,-7.05
2022-12-15T05:23:15.397Z,-7.10
2022-12-15T05:26:01.246Z,-7.10
2022-12-15T05:28:47.185Z,-7.12
2022-12-15T05:31:32.604Z,-7.12
2022-12-15T05:34:04.789Z,-7.13
2022-12-15T05:36:32.017Z,-7.16
2022-12-15T05:38:58.620Z,-7.17
2022-12-15T05:41:25.170Z,-7.18
2022-12-15T05:43:51.683Z,-7.20
2022-12-15T05:46:18.245Z,-7.22
2022-12-15T05:48:44.871Z,-7.23
2022-12-15T05:51:12.992Z,-7.24
2022-12-15T05:53:41.203Z,-7.24
2022-12-15T05:56:12.587Z,-7.25
2022-12-15T05:58:45.089Z,-7.26
2022-12-15T06:01:14.425Z,-7.28
2022-12-15T06:03:42.166Z,-7.32
2022-12-15T06:06:10.309Z,-7.34
2022-12-15T06:08:38.940Z,-7.33
2022-12-15T06:11:05.721Z,-7.33
2022-12-15T06:13:36.796Z,-7.33
2022-12-15T06:16:06.642Z,-7.34
2022-12-15T06:18:44.271Z,-7.33
2022-12-15T06:21:19.264Z,-7.34
2022-12-15T06:23:46.878Z,-7.35
2022-12-15T06:26:15.806Z,-7.37
2022-12-15T06:28:42.461Z,-7.39
2022-12-15T06:31:10.909Z,-7.38
2022-12-15T06:33:38.264Z,-7.36
2022-12-15T06:36:07.000Z,-7.37
2022-12-15T06:38:34.181Z,-7.36
2022-12-15T06:41:02.380Z,-7.36
2022-12-15T06:43:30.356Z,-7.37
2022-12-15T06:45:57.541Z,-7.38
2022-12-15T06:48:24.755Z,-7.38
2022-12-15T06:50:51.909Z,-7.35
2022-12-15T06:53:20.288Z,-7.36
2022-12-15T06:55:47.540Z,-7.36
2022-12-15T06:58:14.926Z,-7.37
2022-12-15T07:00:43.252Z,-7.36
2022-12-15T07:03:15.655Z,-7.37
2022-12-15T07:05:43.964Z,-7.36
2022-12-15T07:08:11.666Z,-7.35
2022-12-15T07:10:40.250Z,-7.35
2022-12-15T07:13:09.890Z,-7.35
2022-12-15T07:15:36.994Z,-7.30
2022-12-15T07:18:04.057Z,-7.31
2022-12-15T07:20:31.250Z,-7.33
2022-12-15T07:22:57.831Z,-7.35
2022-12-15T07:25:24.509Z,-7.36
2022-12-15T07:27:51.102Z,-7.36
2022-12-15T07:30:18.055Z,-7.37
2022-12-15T07:32:50.225Z,-7.36
2022-12-15T07:35:17.999Z,-7.36
2022-12-15T07:37:44.495Z,-7.38
2022-12-15T07:40:11.674Z,-7.34
2022-12-15T07:42:38.216Z,-7.32
2022-12-15T07:45:05.750Z,-7.31
2022-12-15T07:47:32.914Z,-7.26
2022-12-15T07:49:59.493Z,-7.25
2022-12-15T07:52:26.480Z,-7.23
2022-12-15T07:54:53.154Z,-7.22
2022-12-15T07:57:19.916Z,-7.15
2022-12-15T07:59:46.805Z,-7.11
2022-12-15T08:02:14.324Z,-7.08
2022-12-15T08:04:41.097Z,-7.05
2022-12-15T08:07:09.131Z,-7.03
2022-12-15T08:09:36.300Z,-7.01
2022-12-15T08:12:03.626Z,-6.99
2022-12-15T08:14:32.065Z,-6.98
2022-12-15T08:16:58.582Z,-6.95
2022-12-15T08:19:25.105Z,-6.91
2022-12-15T08:21:51.664Z,-6.89
2022-12-15T08:24:19.417Z,-6.85
2022-12-15T08:26:50.132Z,-6.82
2022-12-15T08:29:49.689Z,-6.74
2022-12-15T08:32:05.589Z,-6.70
2022-12-15T08:34:32.372Z,-6.64
2022-12-15T08:36:58.911Z,-6.62
2022-12-15T08:39:25.972Z,-6.59
2022-12-15T08:41:52.513Z,-6.53
2022-12-15T08:44:19.076Z,-6.51
2022-12-15T08:46:45.661Z,-6.48
2022-12-15T08:49:16.497Z,-6.45
2022-12-15T08:51:46.225Z,-6.38
2022-12-15T08:54:16.643Z,-6.33
2022-12-15T08:56:43.231Z,-6.30
2022-12-15T08:59:09.973Z,-6.24
2022-12-15T09:01:40.458Z,-6.17
2022-12-15T09:04:07.530Z,-6.12
2022-12-15T09:06:35.729Z,-6.06
2022-12-15T09:09:07.997Z,-6.02
2022-12-15T09:11:35.243Z,-5.96
2022-12-15T09:14:02.379Z,-5.86
2022-12-15T09:16:29.310Z,-5.80
2022-12-15T09:18:58.866Z,-5.75
2022-12-15T09:21:28.914Z,-5.70
2022-12-15T09:24:00.816Z,-5.62
2022-12-15T09:26:30.206Z,-5.56
2022-12-15T09:28:57.148Z,-5.47
2022-12-15T09:31:28.441Z,-5.43
2022-12-15T09:33:57.178Z,-5.39
2022-12-15T09:36:24.779Z,-5.29
2022-12-15T09:38:51.655Z,-5.23
2022-12-15T09:41:28.057Z,-5.14
2022-12-15T09:44:14.979Z,-5.07
2022-12-15T09:46:53.796Z,-5.00
2022-12-15T09:49:42.253Z,-4.94
2022-12-15T09:52:13.395Z,-4.88
2022-12-15T09:54:43.436Z,-4.79
2022-12-15T09:57:42.818Z,-4.73
2022-12-15T10:00:21.579Z,-4.66
2022-12-15T10:03:00.641Z,-4.56
2022-12-15T10:09:18.426Z,-4.38
2022-12-15T10:11:52.613Z,-4.31
2022-12-15T10:14:23.564Z,-4.25
2022-12-15T10:16:58.616Z,-4.22
2022-12-15T10:19:42.331Z,-4.15
2022-12-15T10:22:31.823Z,-4.09
2022-12-15T10:25:22.078Z,-4.03
2022-12-15T10:28:16.329Z,-4.01
2022-12-15T10:30:55.043Z,-3.93
2022-12-15T10:33:25.330Z,-3.85
2022-12-15T10:35:54.311Z,-3.77
2022-12-15T10:38:25.405Z,-3.74
2022-12-15T10:40:59.489Z,-3.68
2022-12-15T10:43:35.649Z,-3.54
2022-12-15T10:46:05.661Z,-3.43
2022-12-15T10:48:32.250Z,-3.24
2022-12-15T10:51:25.308Z,-3.07
2022-12-15T10:54:06.665Z,-2.86
2022-12-15T10:56:34.606Z,-2.67
2022-12-15T10:59:14.582Z,-2.53
2022-12-15T11:01:41.199Z,-2.52
2022-12-15T11:04:47.326Z,-2.51
2022-12-15T11:07:17.924Z,-2.50
2022-12-15T11:09:46.840Z,-2.47
2022-12-15T11:12:41.449Z,-2.43
2022-12-15T11:15:22.959Z,-2.47
2022-12-15T11:17:55.357Z,-2.39
2022-12-15T11:20:38.342Z,-2.32
2022-12-15T11:23:19.359Z,-2.19
2022-12-15T11:25:54.976Z,-2.07
2022-12-15T11:28:35.277Z,-2.11
2022-12-15T11:31:15.064Z,-2.17
2022-12-15T11:33:41.634Z,-2.26
2022-12-15T11:36:40.532Z,-2.28
2022-12-15T11:39:34.587Z,-2.22
2022-12-15T11:42:10.054Z,-2.17
2022-12-15T11:44:53.290Z,-2.07
2022-12-15T11:47:34.674Z,-1.90
2022-12-15T11:50:17.364Z,-1.84
2022-12-15T11:53:22.367Z,-1.77
2022-12-15T11:56:26.952Z,-1.75
2022-12-15T11:59:12.219Z,-1.60
2022-12-15T12:02:16.128Z,-1.31
2022-12-15T12:04:52.049Z,-1.23
2022-12-15T12:07:21.370Z,-1.18
2022-12-15T12:10:12.154Z,-1.19
2022-12-15T12:13:14.179Z,-1.23
2022-12-15T12:15:55.876Z,-1.16
2022-12-15T12:18:42.082Z,-1.10
2022-12-15T12:21:13.798Z,-1.05
2022-12-15T12:24:01.968Z,-0.98
2022-12-15T12:26:34.634Z,-0.95
2022-12-15T12:29:14.268Z,-0.92
2022-12-15T12:32:16.310Z,-0.86
2022-12-15T12:38:06.546Z,-0.78
2022-12-15T12:40:54.891Z,-0.90
2022-12-15T12:43:36.968Z,-1.04
2022-12-15T12:46:19.674Z,-1.03
2022-12-15T12:48:52.878Z,-1.09
2022-12-15T12:51:34.938Z,-1.17
2022-12-15T12:54:02.499Z,-1.17
2022-12-15T12:56:55.435Z,-1.10
2022-12-15T12:59:31.007Z,-1.04
2022-12-15T13:02:11.273Z,-0.92
2022-12-15T13:04:39.445Z,-0.78
2022-12-15T13:07:40.471Z,-0.68
2022-12-15T13:10:34.088Z,-0.71
2022-12-15T13:13:31.245Z,-0.84
2022-12-15T13:16:04.809Z,-0.93
2022-12-15T13:19:09.327Z,-1.00
2022-12-15T13:21:42.222Z,-0.88
2022-12-15T13:24:30.492Z,-0.76
2022-12-15T13:27:09.060Z,-0.69
2022-12-15T13:29:37.720Z,-0.67
2022-12-15T13:32:04.349Z,-0.64
2022-12-15T13:34:39.044Z,-0.78
2022-12-15T13:37:26.231Z,-0.89
2022-12-15T13:39:56.575Z,-0.86
2022-12-15T13:42:39.097Z,-0.76
2022-12-15T13:45:29.075Z,-0.64
2022-12-15T13:47:56.449Z,-0.60
2022-12-15T13:50:44.283Z,-0.58
2022-12-15T13:53:22.212Z,-0.57
2022-12-15T13:56:41.510Z,-0.58
2022-12-15T13:59:40.118Z,-0.59
2022-12-15T14:02:30.158Z,-0.61
2022-12-15T14:05:22.623Z,-0.62
2022-12-15T14:08:01.159Z,-0.64
2022-12-15T14:10:30.028Z,-0.70
2022-12-15T14:12:58.414Z,-0.74
2022-12-15T14:15:33.030Z,-0.82
2022-12-15T14:18:02.079Z,-0.85
2022-12-15T14:20:32.080Z,-0.82
2022-12-15T14:22:59.147Z,-0.80
2022-12-15T14:25:31.587Z,-0.83
2022-12-15T14:27:58.167Z,-0.84
2022-12-15T14:30:25.615Z,-0.86
2022-12-15T14:33:00.948Z,-0.90
2022-12-15T14:35:27.438Z,-0.94
2022-12-15T14:37:57.257Z,-1.00
2022-12-15T14:40:28.914Z,-1.02
2022-12-15T14:42:56.054Z,-1.01
2022-12-15T14:45:27.288Z,-1.05
2022-12-15T14:48:39.417Z,-1.09
2022-12-15T14:50:53.174Z,-1.17
2022-12-15T14:53:22.231Z,-1.24
2022-12-15T14:55:49.571Z,-1.25
2022-12-15T14:58:34.610Z,-1.32
2022-12-15T15:01:03.077Z,-1.37
2022-12-15T15:03:04.234Z,-4.46
2022-12-15T15:03:05.021Z,-0.76
2022-12-15T15:03:39.069Z,-1.43
2022-12-15T15:06:17.206Z,-1.47
2022-12-15T15:08:51.021Z,-1.52
2022-12-15T15:11:17.471Z,-1.55
2022-12-15T15:13:45.215Z,-1.61
2022-12-15T15:16:17.805Z,-1.64
2022-12-15T15:18:49.542Z,-1.70
2022-12-15T15:21:21.379Z,-1.75
2022-12-15T15:24:14.698Z,-1.80
2022-12-15T15:26:41.337Z,-1.85
2022-12-15T15:29:44.705Z,-1.91
2022-12-15T15:32:18.180Z,-1.97
2022-12-15T15:34:45.127Z,-2.03
2022-12-15T15:37:18.242Z,-2.07
2022-12-15T15:39:47.318Z,-2.14
2022-12-15T15:42:13.788Z,-2.19
2022-12-15T15:44:40.475Z,-2.23
2022-12-15T15:47:16.981Z,-2.26
2022-12-15T15:49:44.434Z,-2.29
2022-12-15T15:52:13.334Z,-2.31
2022-12-15T15:54:39.773Z,-2.32
2022-12-15T15:57:06.332Z,-2.34
2022-12-15T15:59:32.928Z,-2.32
2022-12-15T16:02:00.510Z,-2.31
2022-12-15T16:04:27.542Z,-2.31
2022-12-15T16:06:54.443Z,-2.25
2022-12-15T16:09:21.363Z,-2.24
2022-12-15T16:11:47.885Z,-2.26
2022-12-15T16:14:16.795Z,-2.26
2022-12-15T16:16:43.602Z,-2.31
2022-12-15T16:19:12.057Z,-2.35
2022-12-15T16:21:40.559Z,-2.38
2022-12-15T16:24:13.237Z,-2.41
2022-12-15T16:26:47.899Z,-2.45
2022-12-15T16:29:16.675Z,-2.47
2022-12-15T16:31:46.600Z,-2.49
2022-12-15T16:34:16.713Z,-2.52
2022-12-15T16:36:44.729Z,-2.54
2022-12-15T16:39:33.867Z,-2.58
2022-12-15T16:42:00.699Z,-2.62
2022-12-15T16:44:29.610Z,-2.65
2022-12-15T16:46:57.120Z,-2.69
2022-12-15T16:49:23.869Z,-2.71
2022-12-15T16:51:53.352Z,-2.73
2022-12-15T16:54:23.632Z,-2.75
2022-12-15T16:56:52.101Z,-2.78
2022-12-15T16:59:37.347Z,-2.81
2022-12-15T17:02:31.154Z,-2.82
2022-12-15T17:04:57.915Z,-2.80
2022-12-15T17:07:27.574Z,-2.78
2022-12-15T17:09:54.157Z,-2.82
2022-12-15T17:12:20.777Z,-2.87
2022-12-15T17:14:47.348Z,-2.92
2022-12-15T17:17:19.262Z,-2.95
2022-12-15T17:20:19.703Z,-2.98
2022-12-15T17:22:33.782Z,-3.01
2022-12-15T17:25:00.440Z,-3.04
2022-12-15T17:27:29.712Z,-3.03
2022-12-15T17:29:58.611Z,-3.04
2022-12-15T17:32:25.148Z,-3.03
2022-12-15T17:34:54.772Z,-3.01
2022-12-15T17:37:21.369Z,-3.01
2022-12-15T17:39:51.449Z,-2.99
2022-12-15T17:42:20.387Z,-2.99
2022-12-15T17:44:48.322Z,-2.96
2022-12-15T17:47:16.753Z,-2.97
2022-12-15T17:49:43.901Z,-2.97
2022-12-15T17:52:26.226Z,-2.93
2022-12-15T17:54:52.972Z,-2.86
2022-12-15T17:57:19.672Z,-2.78
2022-12-15T17:59:46.602Z,-2.65
2022-12-15T18:02:14.488Z,-2.52
2022-12-15T18:04:42.389Z,-2.50
2022-12-15T18:07:20.811Z,-2.45
2022-12-15T18:09:48.523Z,-2.42
2022-12-15T18:12:26.993Z,-2.39
2022-12-15T18:14:55.153Z,-2.37
2022-12-15T18:17:22.241Z,-2.36
2022-12-15T18:19:48.890Z,-2.38
2022-12-15T18:22:20.349Z,-2.35
2022-12-15T18:24:47.031Z,-2.35
2022-12-15T18:27:32.327Z,-2.33
2022-12-15T18:29:58.837Z,-2.34
2022-12-15T18:32:27.388Z,-2.31
2022-12-15T18:34:54.906Z,-2.30
2022-12-15T18:37:24.702Z,-2.31
2022-12-15T18:39:51.630Z,-2.32
2022-12-15T18:42:21.032Z,-2.38
2022-12-15T18:44:50.435Z,-2.44
2022-12-15T18:47:18.896Z,-2.48
2022-12-15T18:49:48.695Z,-2.49
2022-12-15T18:52:16.554Z,-2.51
2022-12-15T18:54:43.816Z,-2.53
2022-12-15T18:57:30.752Z,-2.55
2022-12-15T19:00:14.296Z,-2.57
2022-12-15T19:02:42.135Z,-2.57
2022-12-15T19:05:27.636Z,-2.60
2022-12-15T19:07:59.342Z,-2.63
2022-12-15T19:10:28.925Z,-2.64
2022-12-15T19:12:58.697Z,-2.62
2022-12-15T19:15:26.470Z,-2.63
2022-12-15T19:18:11.721Z,-2.62
2022-12-15T19:20:57.523Z,-2.58
2022-12-15T19:23:24.387Z,-2.57
2022-12-15T19:25:51.981Z,-2.54
2022-12-15T19:28:23.651Z,-2.50
2022-12-15T19:30:52.032Z,-2.43
2022-12-15T19:33:18.909Z,-2.38
2022-12-15T19:35:50.888Z,-2.33
2022-12-15T19:38:22.604Z,-2.31
2022-12-15T19:40:53.346Z,-2.30
2022-12-15T19:43:21.052Z,-2.29
2022-12-15T19:45:47.933Z,-2.35
2022-12-15T19:48:17.559Z,-2.40
2022-12-15T19:50:50.091Z,-2.48
2022-12-15T19:53:25.490Z,-2.55
2022-12-15T19:55:55.261Z,-2.60
2022-12-15T19:58:28.126Z,-2.67
2022-12-15T20:00:58.703Z,-2.69
2022-12-15T20:03:26.356Z,-2.74
2022-12-15T20:05:55.044Z,-2.75
2022-12-15T20:08:27.753Z,-2.73
2022-12-15T20:10:55.378Z,-2.70
2022-12-15T20:13:22.615Z,-2.65
2022-12-15T20:15:49.221Z,-2.62
2022-12-15T20:18:15.818Z,-2.58
2022-12-15T20:20:45.739Z,-2.54
2022-12-15T20:23:31.917Z,-2.52
2022-12-15T20:25:58.787Z,-2.47
2022-12-15T20:28:28.330Z,-2.42
2022-12-15T20:30:56.269Z,-2.35
2022-12-15T20:33:23.449Z,-2.32
2022-12-15T20:35:50.458Z,-2.28
2022-12-15T20:38:33.896Z,-2.26
2022-12-15T20:41:02.122Z,-2.23
2022-12-15T20:43:31.694Z,-2.21
2022-12-15T20:46:05.854Z,-2.15
2022-12-15T20:48:34.470Z,-2.14
2022-12-15T20:51:05.836Z,-2.11
2022-12-15T20:53:35.835Z,-2.10
2022-12-15T20:56:02.544Z,-2.08
2022-12-15T20:58:33.146Z,-2.07
2022-12-15T21:01:00.531Z,-2.06
2022-12-15T21:03:34.221Z,-2.03
2022-12-15T21:06:01.072Z,-2.02
2022-12-15T21:08:31.879Z,-2.02
2022-12-15T21:11:07.525Z,-1.99
2022-12-15T21:13:35.505Z,-1.98
2022-12-15T21:16:02.328Z,-1.98
2022-12-15T21:19:10.748Z,-1.96
2022-12-15T21:21:20.716Z,-1.94
2022-12-15T21:23:47.628Z,-1.94
2022-12-15T21:26:18.766Z,-1.96
2022-12-15T21:28:48.659Z,-1.96
2022-12-15T21:31:16.131Z,-1.97
2022-12-15T21:33:43.163Z,-2.02
2022-12-15T21:36:21.244Z,-2.04
2022-12-15T21:38:50.869Z,-2.10
2022-12-15T21:41:20.955Z,-2.15
2022-12-15T21:43:48.147Z,-2.18
2022-12-15T21:46:18.252Z,-2.19
2022-12-15T21:49:05.168Z,-2.15
2022-12-15T21:51:35.702Z,-2.12
2022-12-15T21:54:03.223Z,-2.07
2022-12-15T21:56:29.787Z,-2.05
2022-12-15T21:58:56.668Z,-2.03
2022-12-15T22:01:27.633Z,-2.00
2022-12-15T22:03:56.943Z,-1.96
2022-12-15T22:06:29.317Z,-1.94
2022-12-15T22:08:58.735Z,-1.90
2022-12-15T22:11:28.356Z,-1.88
2022-12-15T22:13:58.629Z,-1.86
2022-12-15T22:16:25.699Z,-1.84
2022-12-15T22:18:55.748Z,-1.83
2022-12-15T22:21:23.928Z,-1.82
2022-12-15T22:23:51.495Z,-1.81
2022-12-15T22:26:20.689Z,-1.78
2022-12-15T22:28:47.357Z,-1.76
2022-12-15T22:31:14.131Z,-1.73
2022-12-15T22:33:40.697Z,-1.72
2022-12-15T22:36:07.427Z,-1.70
2022-12-15T22:38:34.589Z,-1.68
2022-12-15T22:41:01.464Z,-1.65
2022-12-15T22:43:41.693Z,-1.64
2022-12-15T22:46:12.525Z,-1.64
2022-12-15T22:48:44.007Z,-1.63
2022-12-15T22:51:13.246Z,-1.64
2022-12-15T22:53:40.061Z,-1.64
2022-12-15T22:56:21.489Z,-1.65
2022-12-15T22:58:53.378Z,-1.69
2022-12-15T23:01:20.183Z,-1.70
2022-12-15T23:03:46.815Z,-1.76
2022-12-15T23:06:13.418Z,-1.79
2022-12-15T23:08:39.951Z,-1.84
2022-12-15T23:11:24.704Z,-1.88
2022-12-15T23:13:51.255Z,-1.95
2022-12-15T23:16:21.667Z,-2.01
2022-12-15T23:18:51.773Z,-2.06
2022-12-15T23:21:19.064Z,-2.11
2022-12-15T23:23:49.250Z,-2.17
2022-12-15T23:26:18.463Z,-2.23
2022-12-15T23:28:49.264Z,-2.26
2022-12-15T23:31:16.102Z,-2.30
2022-12-15T23:33:42.900Z,-2.35
2022-12-15T23:36:10.218Z,-2.40
2022-12-15T23:38:37.008Z,-2.45
2022-12-15T23:41:04.071Z,-2.49
2022-12-15T23:43:33.479Z,-2.53
2022-12-15T23:46:05.416Z,-2.57
2022-12-15T23:48:35.439Z,-2.63
2022-12-15T23:51:07.251Z,-2.69
2022-12-15T23:53:35.275Z,-2.75
2022-12-15T23:56:06.512Z,-2.78
2022-12-15T23:58:33.061Z,-2.83
